Terminal Aerodrome Forecast
Issued by NWS

Current Version | Previous Version | Text Only | Print | Product List | Glossary On
Versions: 1 2 3 4 5 6 7 8 9 10 11 12 13 14
405
FTUS41 KLWX 292328
TAFMTN
TAF
KMTN 292328Z 3000/3024 06006KT 6SM -DZ BR OVC015
     FM300100 05005KT 3SM -DZ BR BKN008 OVC015
     FM301200 VRB04KT P6SM BKN015 OVC050
     FM301500 08005KT P6SM BKN025
     FM301900 13006KT P6SM BKN050
      AMD NOT SKED 3002/3012=

USA.gov is the U.S. government's official web portal to all federal, state and local government web resources and services.